RPC233 YPDN-WPDL
Flight info
| Callsign | RPC233 |
|---|---|
| Flight time | 2h 6m |
| Altitude | 20000 |
| Route | JULIE Z69 METAN JEMZE4V |
| Aircraft | C414/L-SBDFGRY/S |
Departure
| Time | 2026-04-12 04:49 |
|---|---|
| Airport | Darwin International Airport / RAAF Darwin (YPDN) |
Arrival
| Time | 2026-04-12 06:55 |
|---|---|
| Airport | Presidente Nicolau Lobato International Airport (WPDL) |
| Time | Latitude | Longitude | Altitude | Speed | Heading |
|---|---|---|---|---|---|
| 2026-04-12 04:29 | -12.40470 | 130.87443 | 91 ft | 0 kts | 47° |
| 2026-04-12 04:41 | -12.40468 | 130.87447 | 84 ft | 2 kts | 81° |
| 2026-04-12 04:41 | -12.40477 | 130.87453 | 84 ft | 3 kts | 203° |
| 2026-04-12 04:42 | -12.40500 | 130.87423 | 84 ft | 4 kts | 261° |
| 2026-04-12 04:42 | -12.40504 | 130.87372 | 86 ft | 10 kts | 266° |
| 2026-04-12 04:42 | -12.40512 | 130.87292 | 87 ft | 12 kts | 259° |
| 2026-04-12 04:43 | -12.40665 | 130.87249 | 85 ft | 16 kts | 179° |
| 2026-04-12 04:43 | -12.40767 | 130.87249 | 84 ft | 20 kts | 181° |
| 2026-04-12 04:45 | -12.40810 | 130.87249 | 85 ft | 21 kts | 181° |
| 2026-04-12 04:45 | -12.40950 | 130.87249 | 86 ft | 12 kts | 178° |
| 2026-04-12 04:45 | -12.40984 | 130.87249 | 87 ft | 7 kts | 180° |
| 2026-04-12 04:46 | -12.41037 | 130.87248 | 84 ft | 8 kts | 189° |
| 2026-04-12 04:46 | -12.41044 | 130.87247 | 84 ft | 0 kts | 193° |
| 2026-04-12 04:47 | -12.41062 | 130.87241 | 85 ft | 5 kts | 198° |
| 2026-04-12 04:47 | -12.41106 | 130.87226 | 84 ft | 9 kts | 198° |
| 2026-04-12 04:47 | -12.41159 | 130.87211 | 88 ft | 7 kts | 176° |
| 2026-04-12 04:48 | -12.41171 | 130.87219 | 84 ft | 0 kts | 108° |
| 2026-04-12 04:48 | -12.41181 | 130.87252 | 86 ft | 24 kts | 109° |
| 2026-04-12 04:48 | -12.41302 | 130.87605 | 87 ft | 79 kts | 109° |
| 2026-04-12 04:48 | -12.41521 | 130.88243 | 201 ft | 106 kts | 110° |
| 2026-04-12 04:49 | -12.41785 | 130.88994 | 433 ft | 120 kts | 109° |
| 2026-04-12 04:49 | -12.42067 | 130.89863 | 612 ft | 137 kts | 107° |
| 2026-04-12 04:49 | -12.42353 | 130.90832 | 795 ft | 148 kts | 107° |
| 2026-04-12 04:49 | -12.42674 | 130.91857 | 989 ft | 153 kts | 107° |
| 2026-04-12 04:50 | -12.43000 | 130.92920 | 1121 ft | 159 kts | 103° |
| 2026-04-12 04:50 | -12.42886 | 130.94032 | 1327 ft | 162 kts | 64° |
| 2026-04-12 04:50 | -12.42014 | 130.94764 | 1509 ft | 170 kts | 20° |
| 2026-04-12 04:50 | -12.40828 | 130.94700 | 1695 ft | 179 kts | 341° |
| 2026-04-12 04:51 | -12.39768 | 130.93984 | 1844 ft | 183 kts | 322° |
| 2026-04-12 04:51 | -12.38808 | 130.93203 | 2252 ft | 173 kts | 326° |
| 2026-04-12 04:51 | -12.37805 | 130.92543 | 2566 ft | 167 kts | 332° |
| 2026-04-12 04:51 | -12.36801 | 130.91956 | 2893 ft | 165 kts | 334° |
| 2026-04-12 04:52 | -12.35798 | 130.91448 | 3327 ft | 158 kts | 335° |
| 2026-04-12 04:52 | -12.34817 | 130.90938 | 3580 ft | 160 kts | 334° |
| 2026-04-12 04:52 | -12.33879 | 130.90428 | 4073 ft | 148 kts | 333° |
| 2026-04-12 04:52 | -12.32988 | 130.89921 | 4507 ft | 147 kts | 333° |
| 2026-04-12 04:53 | -12.32095 | 130.89424 | 4879 ft | 144 kts | 333° |
| 2026-04-12 04:53 | -12.31222 | 130.88916 | 5201 ft | 145 kts | 336° |
| 2026-04-12 04:53 | -12.29486 | 130.87838 | 5813 ft | 151 kts | 302° |
| 2026-04-12 04:54 | -12.29104 | 130.86845 | 6121 ft | 151 kts | 288° |
| 2026-04-12 04:54 | -12.28712 | 130.85841 | 6433 ft | 153 kts | 292° |
| 2026-04-12 04:54 | -12.28293 | 130.84835 | 6738 ft | 154 kts | 292° |
| 2026-04-12 04:54 | -12.27872 | 130.83825 | 7038 ft | 155 kts | 292° |
| 2026-04-12 04:55 | -12.27440 | 130.82806 | 7335 ft | 157 kts | 292° |
| 2026-04-12 04:55 | -12.27013 | 130.81792 | 7649 ft | 158 kts | 292° |
| 2026-04-12 04:55 | -12.26566 | 130.80737 | 7971 ft | 160 kts | 292° |
| 2026-04-12 04:55 | -12.26128 | 130.79701 | 8277 ft | 162 kts | 292° |
| 2026-04-12 04:56 | -12.25681 | 130.78642 | 8588 ft | 163 kts | 292° |
| 2026-04-12 04:56 | -12.25229 | 130.77574 | 8892 ft | 165 kts | 292° |
| 2026-04-12 04:56 | -12.24771 | 130.76496 | 9200 ft | 165 kts | 292° |
| 2026-04-12 04:56 | -12.24315 | 130.75413 | 9514 ft | 166 kts | 292° |
| 2026-04-12 04:57 | -12.23856 | 130.74330 | 9833 ft | 166 kts | 292° |
| 2026-04-12 04:57 | -12.23399 | 130.73248 | 10158 ft | 165 kts | 292° |
| 2026-04-12 04:57 | -12.22942 | 130.72168 | 10465 ft | 166 kts | 292° |
| 2026-04-12 04:57 | -12.22486 | 130.71089 | 10769 ft | 166 kts | 292° |
| 2026-04-12 04:58 | -12.22028 | 130.70006 | 11082 ft | 165 kts | 293° |
| 2026-04-12 04:58 | -12.21571 | 130.68928 | 11381 ft | 166 kts | 292° |
| 2026-04-12 04:58 | -12.21113 | 130.67846 | 11677 ft | 166 kts | 292° |
| 2026-04-12 04:58 | -12.20653 | 130.66763 | 11970 ft | 166 kts | 292° |
| 2026-04-12 04:59 | -12.20194 | 130.65679 | 12257 ft | 166 kts | 292° |
| 2026-04-12 04:59 | -12.19734 | 130.64593 | 12528 ft | 167 kts | 293° |
| 2026-04-12 04:59 | -12.19272 | 130.63503 | 12808 ft | 167 kts | 293° |
| 2026-04-12 04:59 | -12.18809 | 130.62412 | 13084 ft | 168 kts | 293° |
| 2026-04-12 05:00 | -12.18345 | 130.61319 | 13364 ft | 167 kts | 293° |
| 2026-04-12 05:00 | -12.17883 | 130.60225 | 13626 ft | 168 kts | 293° |
| 2026-04-12 05:00 | -12.17418 | 130.59125 | 13889 ft | 169 kts | 293° |
| 2026-04-12 05:00 | -12.16951 | 130.58024 | 14168 ft | 169 kts | 293° |
| 2026-04-12 05:01 | -12.16485 | 130.56924 | 14425 ft | 169 kts | 293° |
| 2026-04-12 05:01 | -12.16016 | 130.55820 | 14683 ft | 169 kts | 293° |
| 2026-04-12 05:01 | -12.15552 | 130.54731 | 14933 ft | 170 kts | 293° |
| 2026-04-12 05:01 | -12.15085 | 130.53625 | 15176 ft | 170 kts | 293° |
| 2026-04-12 05:02 | -12.14614 | 130.52512 | 15420 ft | 171 kts | 294° |
| 2026-04-12 05:02 | -12.14144 | 130.51404 | 15680 ft | 170 kts | 294° |
| 2026-04-12 05:02 | -12.13671 | 130.50290 | 15915 ft | 171 kts | 294° |
| 2026-04-12 05:02 | -12.13197 | 130.49175 | 16149 ft | 171 kts | 294° |
| 2026-04-12 05:03 | -12.12724 | 130.48059 | 16392 ft | 171 kts | 294° |
| 2026-04-12 05:03 | -12.12249 | 130.46939 | 16609 ft | 172 kts | 294° |
| 2026-04-12 05:03 | -12.11772 | 130.45816 | 16832 ft | 173 kts | 294° |
| 2026-04-12 05:03 | -12.11294 | 130.44691 | 17066 ft | 172 kts | 294° |
| 2026-04-12 05:04 | -12.10816 | 130.43566 | 17286 ft | 173 kts | 294° |
| 2026-04-12 05:04 | -12.10500 | 130.42819 | 17433 ft | 173 kts | 294° |
| 2026-04-12 05:04 | -12.10019 | 130.41688 | 17643 ft | 174 kts | 294° |
| 2026-04-12 05:04 | -12.09538 | 130.40557 | 17864 ft | 173 kts | 294° |
| 2026-04-12 05:05 | -12.09058 | 130.39427 | 18069 ft | 174 kts | 294° |
| 2026-04-12 05:05 | -12.08577 | 130.38293 | 18235 ft | 175 kts | 294° |
| 2026-04-12 05:05 | -12.08091 | 130.37148 | 18420 ft | 176 kts | 294° |
| 2026-04-12 05:05 | -12.07604 | 130.36002 | 18606 ft | 176 kts | 295° |
| 2026-04-12 05:06 | -12.07113 | 130.34849 | 18795 ft | 177 kts | 294° |
| 2026-04-12 05:06 | -12.06624 | 130.33699 | 18995 ft | 177 kts | 294° |
| 2026-04-12 05:06 | -12.06133 | 130.32548 | 19196 ft | 177 kts | 294° |
| 2026-04-12 05:06 | -12.05643 | 130.31391 | 19377 ft | 178 kts | 294° |
| 2026-04-12 05:07 | -12.05152 | 130.30235 | 19565 ft | 178 kts | 294° |
| 2026-04-12 05:07 | -12.04657 | 130.29074 | 19750 ft | 178 kts | 294° |
| 2026-04-12 05:07 | -12.04161 | 130.27906 | 19876 ft | 183 kts | 294° |
| 2026-04-12 05:07 | -12.03639 | 130.26683 | 19888 ft | 192 kts | 294° |
| 2026-04-12 05:08 | -12.03093 | 130.25403 | 19888 ft | 201 kts | 294° |
| 2026-04-12 05:08 | -12.02532 | 130.24083 | 19888 ft | 203 kts | 294° |
| 2026-04-12 05:08 | -12.01967 | 130.22755 | 19887 ft | 204 kts | 294° |
| 2026-04-12 05:08 | -12.01397 | 130.21416 | 19889 ft | 207 kts | 294° |
| 2026-04-12 05:09 | -12.00821 | 130.20061 | 19886 ft | 210 kts | 294° |
| 2026-04-12 05:09 | -12.00236 | 130.18687 | 19886 ft | 212 kts | 294° |
| 2026-04-12 05:09 | -11.99643 | 130.17296 | 19887 ft | 215 kts | 294° |
| 2026-04-12 05:09 | -11.99044 | 130.15892 | 19886 ft | 217 kts | 294° |
| 2026-04-12 05:10 | -11.98441 | 130.14477 | 19890 ft | 218 kts | 294° |
| 2026-04-12 05:10 | -11.97836 | 130.13056 | 19893 ft | 219 kts | 294° |
| 2026-04-12 05:10 | -11.97229 | 130.11629 | 19894 ft | 219 kts | 294° |
| 2026-04-12 05:10 | -11.96620 | 130.10200 | 19895 ft | 220 kts | 294° |
| 2026-04-12 05:11 | -11.96010 | 130.08768 | 19897 ft | 220 kts | 294° |
| 2026-04-12 05:11 | -11.95399 | 130.07338 | 19897 ft | 219 kts | 294° |
| 2026-04-12 05:11 | -11.94790 | 130.05910 | 19898 ft | 219 kts | 294° |
| 2026-04-12 05:11 | -11.94183 | 130.04483 | 19897 ft | 219 kts | 294° |
| 2026-04-12 05:12 | -11.93574 | 130.03057 | 19896 ft | 219 kts | 294° |
| 2026-04-12 05:12 | -11.92964 | 130.01630 | 19893 ft | 219 kts | 294° |
| 2026-04-12 05:12 | -11.92356 | 130.00203 | 19892 ft | 219 kts | 294° |
| 2026-04-12 05:12 | -11.91748 | 129.98776 | 19894 ft | 219 kts | 294° |
| 2026-04-12 05:13 | -11.91147 | 129.97370 | 19895 ft | 219 kts | 294° |
| 2026-04-12 05:13 | -11.90539 | 129.95945 | 19893 ft | 219 kts | 294° |
| 2026-04-12 05:13 | -11.89931 | 129.94521 | 19894 ft | 219 kts | 295° |
| 2026-04-12 05:13 | -11.89324 | 129.93103 | 19896 ft | 218 kts | 294° |
| 2026-04-12 05:14 | -11.88718 | 129.91682 | 19897 ft | 218 kts | 294° |
| 2026-04-12 05:14 | -11.88111 | 129.90260 | 19893 ft | 219 kts | 294° |
| 2026-04-12 05:14 | -11.87504 | 129.88840 | 19893 ft | 219 kts | 294° |
| 2026-04-12 05:14 | -11.86895 | 129.87415 | 19891 ft | 219 kts | 294° |
| 2026-04-12 05:15 | -11.86287 | 129.85994 | 19890 ft | 219 kts | 294° |
| 2026-04-12 05:15 | -11.85679 | 129.84569 | 19893 ft | 219 kts | 294° |
| 2026-04-12 05:15 | -11.85070 | 129.83146 | 19895 ft | 219 kts | 294° |
| 2026-04-12 05:15 | -11.84460 | 129.81720 | 19891 ft | 219 kts | 294° |
| 2026-04-12 05:16 | -11.83851 | 129.80295 | 19894 ft | 219 kts | 294° |
| 2026-04-12 05:16 | -11.83244 | 129.78875 | 19896 ft | 219 kts | 294° |
| 2026-04-12 05:16 | -11.82634 | 129.77450 | 19895 ft | 219 kts | 294° |
| 2026-04-12 05:16 | -11.82024 | 129.76025 | 19890 ft | 219 kts | 294° |
| 2026-04-12 05:17 | -11.81416 | 129.74603 | 19897 ft | 219 kts | 294° |
| 2026-04-12 05:17 | -11.80806 | 129.73179 | 19892 ft | 219 kts | 294° |
| 2026-04-12 05:17 | -11.80198 | 129.71757 | 19892 ft | 219 kts | 294° |
| 2026-04-12 05:17 | -11.79560 | 129.70348 | 19892 ft | 218 kts | 302° |
| 2026-04-12 05:18 | -11.78649 | 129.69125 | 19895 ft | 217 kts | 310° |
| 2026-04-12 05:18 | -11.77719 | 129.67912 | 19896 ft | 217 kts | 309° |
| 2026-04-12 05:18 | -11.76793 | 129.66691 | 19894 ft | 217 kts | 309° |
| 2026-04-12 05:18 | -11.75864 | 129.65474 | 19894 ft | 218 kts | 309° |
| 2026-04-12 05:19 | -11.74932 | 129.64257 | 19894 ft | 218 kts | 309° |
| 2026-04-12 05:19 | -11.74000 | 129.63039 | 19894 ft | 218 kts | 309° |
| 2026-04-12 05:19 | -11.73068 | 129.61819 | 19894 ft | 218 kts | 309° |
| 2026-04-12 05:19 | -11.72136 | 129.60602 | 19894 ft | 218 kts | 309° |
| 2026-04-12 05:20 | -11.71203 | 129.59380 | 19894 ft | 218 kts | 309° |
| 2026-04-12 05:20 | -11.70269 | 129.58158 | 19895 ft | 218 kts | 309° |
| 2026-04-12 05:20 | -11.69335 | 129.56939 | 19894 ft | 218 kts | 309° |
| 2026-04-12 05:20 | -11.68403 | 129.55721 | 19894 ft | 218 kts | 309° |
| 2026-04-12 05:21 | -11.67472 | 129.54504 | 19894 ft | 218 kts | 309° |
| 2026-04-12 05:21 | -11.66538 | 129.53284 | 19894 ft | 218 kts | 309° |
| 2026-04-12 05:21 | -11.65617 | 129.52081 | 19894 ft | 218 kts | 309° |
| 2026-04-12 05:21 | -11.64671 | 129.50845 | 19894 ft | 218 kts | 309° |
| 2026-04-12 05:22 | -11.63748 | 129.49641 | 19895 ft | 218 kts | 309° |
| 2026-04-12 05:22 | -11.62817 | 129.48424 | 19895 ft | 219 kts | 309° |
| 2026-04-12 05:22 | -11.61884 | 129.47205 | 19897 ft | 218 kts | 309° |
| 2026-04-12 05:22 | -11.60947 | 129.45983 | 19897 ft | 219 kts | 309° |
| 2026-04-12 05:23 | -11.60012 | 129.44761 | 19896 ft | 218 kts | 309° |
| 2026-04-12 05:23 | -11.59076 | 129.43540 | 19892 ft | 219 kts | 309° |
| 2026-04-12 05:23 | -11.58139 | 129.42318 | 19891 ft | 219 kts | 309° |
| 2026-04-12 05:23 | -11.57203 | 129.41096 | 19897 ft | 219 kts | 309° |
| 2026-04-12 05:24 | -11.56267 | 129.39875 | 19893 ft | 219 kts | 309° |
| 2026-04-12 05:24 | -11.55331 | 129.38653 | 19889 ft | 219 kts | 309° |
| 2026-04-12 05:24 | -11.54395 | 129.37432 | 19889 ft | 218 kts | 309° |
| 2026-04-12 05:24 | -11.53459 | 129.36213 | 19895 ft | 218 kts | 309° |
| 2026-04-12 05:25 | -11.52524 | 129.34993 | 19896 ft | 219 kts | 309° |
| 2026-04-12 05:25 | -11.51587 | 129.33771 | 19889 ft | 219 kts | 309° |
| 2026-04-12 05:25 | -11.50651 | 129.32550 | 19889 ft | 219 kts | 309° |
| 2026-04-12 05:25 | -11.49712 | 129.31326 | 19889 ft | 219 kts | 309° |
| 2026-04-12 05:26 | -11.48778 | 129.30107 | 19890 ft | 219 kts | 309° |
| 2026-04-12 05:26 | -11.47843 | 129.28890 | 19890 ft | 218 kts | 309° |
| 2026-04-12 05:26 | -11.46908 | 129.27672 | 19892 ft | 218 kts | 309° |
| 2026-04-12 05:26 | -11.45974 | 129.26456 | 19896 ft | 218 kts | 309° |
| 2026-04-12 05:27 | -11.45042 | 129.25239 | 19896 ft | 218 kts | 309° |
| 2026-04-12 05:27 | -11.44110 | 129.24024 | 19892 ft | 218 kts | 309° |
| 2026-04-12 05:27 | -11.43174 | 129.22806 | 19893 ft | 218 kts | 309° |
| 2026-04-12 05:27 | -11.42240 | 129.21590 | 19897 ft | 218 kts | 309° |
| 2026-04-12 05:28 | -11.41305 | 129.20372 | 19897 ft | 218 kts | 309° |
| 2026-04-12 05:28 | -11.40370 | 129.19155 | 19893 ft | 218 kts | 309° |
| 2026-04-12 05:28 | -11.39434 | 129.17935 | 19891 ft | 218 kts | 309° |
| 2026-04-12 05:28 | -11.38498 | 129.16718 | 19890 ft | 218 kts | 309° |
| 2026-04-12 05:29 | -11.37562 | 129.15499 | 19893 ft | 218 kts | 309° |
| 2026-04-12 05:29 | -11.36626 | 129.14280 | 19890 ft | 218 kts | 309° |
| 2026-04-12 05:29 | -11.35690 | 129.13061 | 19890 ft | 218 kts | 309° |
| 2026-04-12 05:29 | -11.34753 | 129.11844 | 19890 ft | 218 kts | 309° |
| 2026-04-12 05:30 | -11.33817 | 129.10627 | 19890 ft | 218 kts | 309° |
| 2026-04-12 05:30 | -11.32898 | 129.09430 | 19893 ft | 218 kts | 309° |
| 2026-04-12 05:30 | -11.31963 | 129.08211 | 19889 ft | 218 kts | 309° |
| 2026-04-12 05:30 | -11.31028 | 129.06996 | 19889 ft | 218 kts | 309° |
| 2026-04-12 05:31 | -11.30090 | 129.05778 | 19893 ft | 219 kts | 309° |
| 2026-04-12 05:31 | -11.29155 | 129.04563 | 19893 ft | 218 kts | 309° |
| 2026-04-12 05:31 | -11.28220 | 129.03347 | 19889 ft | 218 kts | 309° |
| 2026-04-12 05:31 | -11.27284 | 129.02128 | 19889 ft | 218 kts | 309° |
| 2026-04-12 05:32 | -11.26347 | 129.00909 | 19889 ft | 219 kts | 309° |
| 2026-04-12 05:32 | -11.25408 | 128.99691 | 19890 ft | 219 kts | 309° |
| 2026-04-12 05:32 | -11.24470 | 128.98473 | 19890 ft | 219 kts | 309° |
| 2026-04-12 05:32 | -11.23534 | 128.97255 | 19890 ft | 218 kts | 309° |
| 2026-04-12 05:33 | -11.22598 | 128.96039 | 19889 ft | 218 kts | 308° |
| 2026-04-12 05:33 | -11.21662 | 128.94823 | 19889 ft | 218 kts | 309° |
| 2026-04-12 05:33 | -11.20724 | 128.93605 | 19889 ft | 218 kts | 309° |
| 2026-04-12 05:33 | -11.19787 | 128.92388 | 19889 ft | 218 kts | 309° |
| 2026-04-12 05:34 | -11.18849 | 128.91170 | 19889 ft | 218 kts | 309° |
| 2026-04-12 05:34 | -11.17911 | 128.89952 | 19890 ft | 218 kts | 308° |
| 2026-04-12 05:34 | -11.16974 | 128.88735 | 19890 ft | 218 kts | 309° |
| 2026-04-12 05:34 | -11.16036 | 128.87519 | 19890 ft | 219 kts | 309° |
| 2026-04-12 05:35 | -11.15097 | 128.86300 | 19889 ft | 218 kts | 309° |
| 2026-04-12 05:35 | -11.14164 | 128.85089 | 19889 ft | 218 kts | 308° |
| 2026-04-12 05:35 | -11.13227 | 128.83872 | 19889 ft | 218 kts | 309° |
| 2026-04-12 05:35 | -11.12288 | 128.82655 | 19890 ft | 218 kts | 309° |
| 2026-04-12 05:36 | -11.11351 | 128.81439 | 19889 ft | 218 kts | 309° |
| 2026-04-12 05:36 | -11.10414 | 128.80222 | 19889 ft | 218 kts | 309° |
| 2026-04-12 05:36 | -11.09476 | 128.79006 | 19889 ft | 218 kts | 309° |
| 2026-04-12 05:36 | -11.08539 | 128.77791 | 19896 ft | 218 kts | 309° |
| 2026-04-12 05:37 | -11.07601 | 128.76574 | 19893 ft | 218 kts | 309° |
| 2026-04-12 05:37 | -11.06663 | 128.75359 | 19889 ft | 219 kts | 309° |
| 2026-04-12 05:37 | -11.05723 | 128.74140 | 19892 ft | 219 kts | 309° |
| 2026-04-12 05:37 | -11.04786 | 128.72926 | 19896 ft | 218 kts | 309° |
| 2026-04-12 05:38 | -11.03848 | 128.71710 | 19895 ft | 218 kts | 309° |
| 2026-04-12 05:38 | -11.02912 | 128.70496 | 19893 ft | 219 kts | 309° |
| 2026-04-12 05:38 | -11.01974 | 128.69279 | 19891 ft | 219 kts | 309° |
| 2026-04-12 05:38 | -11.01035 | 128.68062 | 19890 ft | 219 kts | 309° |
| 2026-04-12 05:39 | -11.00107 | 128.66861 | 19883 ft | 219 kts | 309° |
| 2026-04-12 05:39 | -10.99168 | 128.65645 | 19891 ft | 219 kts | 309° |
| 2026-04-12 05:39 | -10.98226 | 128.64426 | 19883 ft | 219 kts | 308° |
| 2026-04-12 05:39 | -10.97287 | 128.63209 | 19883 ft | 219 kts | 309° |
| 2026-04-12 05:40 | -10.96334 | 128.61974 | 19883 ft | 219 kts | 309° |
| 2026-04-12 05:40 | -10.95397 | 128.60761 | 19884 ft | 219 kts | 308° |
| 2026-04-12 05:40 | -10.94467 | 128.59557 | 19888 ft | 219 kts | 309° |
| 2026-04-12 05:40 | -10.93528 | 128.58341 | 19884 ft | 219 kts | 308° |
| 2026-04-12 05:41 | -10.92586 | 128.57122 | 19884 ft | 219 kts | 309° |
| 2026-04-12 05:41 | -10.91646 | 128.55906 | 19883 ft | 219 kts | 308° |
| 2026-04-12 05:41 | -10.90707 | 128.54689 | 19887 ft | 219 kts | 309° |
| 2026-04-12 05:41 | -10.89764 | 128.53470 | 19887 ft | 219 kts | 309° |
| 2026-04-12 05:42 | -10.88825 | 128.52255 | 19883 ft | 219 kts | 309° |
| 2026-04-12 05:42 | -10.87884 | 128.51038 | 19883 ft | 219 kts | 309° |
| 2026-04-12 05:42 | -10.86945 | 128.49822 | 19884 ft | 219 kts | 309° |
| 2026-04-12 05:43 | -10.85066 | 128.47392 | 19883 ft | 218 kts | 308° |
| 2026-04-12 05:43 | -10.84127 | 128.46178 | 19878 ft | 218 kts | 309° |
| 2026-04-12 05:43 | -10.83189 | 128.44967 | 19881 ft | 218 kts | 309° |
| 2026-04-12 05:43 | -10.82251 | 128.43754 | 19888 ft | 218 kts | 308° |
| 2026-04-12 05:44 | -10.81312 | 128.42539 | 19879 ft | 219 kts | 309° |
| 2026-04-12 05:44 | -10.80372 | 128.41324 | 19879 ft | 219 kts | 308° |
| 2026-04-12 05:44 | -10.79431 | 128.40108 | 19883 ft | 219 kts | 309° |
| 2026-04-12 05:44 | -10.78491 | 128.38893 | 19879 ft | 219 kts | 308° |
| 2026-04-12 05:45 | -10.77548 | 128.37675 | 19879 ft | 219 kts | 308° |
| 2026-04-12 05:45 | -10.76608 | 128.36462 | 19879 ft | 219 kts | 308° |
| 2026-04-12 05:45 | -10.75666 | 128.35244 | 19881 ft | 219 kts | 308° |
| 2026-04-12 05:45 | -10.74725 | 128.34028 | 19882 ft | 219 kts | 308° |
| 2026-04-12 05:46 | -10.73783 | 128.32813 | 19882 ft | 219 kts | 308° |
| 2026-04-12 05:46 | -10.72843 | 128.31599 | 19881 ft | 219 kts | 308° |
| 2026-04-12 05:46 | -10.71901 | 128.30381 | 19880 ft | 219 kts | 308° |
| 2026-04-12 05:46 | -10.70959 | 128.29167 | 19884 ft | 219 kts | 308° |
| 2026-04-12 05:47 | -10.70031 | 128.27968 | 19887 ft | 219 kts | 308° |
| 2026-04-12 05:47 | -10.69089 | 128.26752 | 19889 ft | 219 kts | 308° |
| 2026-04-12 05:47 | -10.68148 | 128.25537 | 19883 ft | 219 kts | 308° |
| 2026-04-12 05:47 | -10.67206 | 128.24322 | 19884 ft | 219 kts | 308° |
| 2026-04-12 05:48 | -10.66264 | 128.23107 | 19887 ft | 219 kts | 308° |
| 2026-04-12 05:48 | -10.65323 | 128.21892 | 19884 ft | 219 kts | 308° |
| 2026-04-12 05:48 | -10.64381 | 128.20676 | 19888 ft | 219 kts | 308° |
| 2026-04-12 05:48 | -10.63439 | 128.19462 | 19884 ft | 219 kts | 308° |
| 2026-04-12 05:49 | -10.62497 | 128.18247 | 19884 ft | 219 kts | 308° |
| 2026-04-12 05:49 | -10.61556 | 128.17034 | 19884 ft | 219 kts | 308° |
| 2026-04-12 05:49 | -10.60614 | 128.15818 | 19884 ft | 219 kts | 308° |
| 2026-04-12 05:49 | -10.59673 | 128.14605 | 19888 ft | 218 kts | 308° |
| 2026-04-12 05:50 | -10.58733 | 128.13393 | 19884 ft | 218 kts | 308° |
| 2026-04-12 05:50 | -10.57793 | 128.12182 | 19883 ft | 218 kts | 308° |
| 2026-04-12 05:50 | -10.56853 | 128.10970 | 19891 ft | 219 kts | 308° |
| 2026-04-12 05:50 | -10.55911 | 128.09756 | 19888 ft | 219 kts | 308° |
| 2026-04-12 05:51 | -10.54969 | 128.08542 | 19883 ft | 219 kts | 308° |
| 2026-04-12 05:51 | -10.54027 | 128.07328 | 19884 ft | 219 kts | 308° |
| 2026-04-12 05:51 | -10.53084 | 128.06114 | 19886 ft | 219 kts | 308° |
| 2026-04-12 05:51 | -10.52141 | 128.04901 | 19874 ft | 219 kts | 308° |
| 2026-04-12 05:52 | -10.51198 | 128.03685 | 19874 ft | 219 kts | 308° |
| 2026-04-12 05:52 | -10.50256 | 128.02472 | 19872 ft | 219 kts | 308° |
| 2026-04-12 05:52 | -10.49632 | 128.01669 | 19873 ft | 219 kts | 308° |
| 2026-04-12 05:52 | -10.48689 | 128.00454 | 19876 ft | 219 kts | 308° |
| 2026-04-12 05:53 | -10.47748 | 127.99241 | 19876 ft | 219 kts | 308° |
| 2026-04-12 05:53 | -10.46803 | 127.98026 | 19872 ft | 219 kts | 308° |
| 2026-04-12 05:53 | -10.45860 | 127.96811 | 19871 ft | 219 kts | 308° |
| 2026-04-12 05:53 | -10.44917 | 127.95597 | 19878 ft | 219 kts | 308° |
| 2026-04-12 05:54 | -10.43972 | 127.94382 | 19869 ft | 219 kts | 308° |
| 2026-04-12 05:54 | -10.43028 | 127.93168 | 19869 ft | 219 kts | 308° |
| 2026-04-12 05:54 | -10.42085 | 127.91953 | 19869 ft | 219 kts | 308° |
| 2026-04-12 05:54 | -10.41141 | 127.90739 | 19869 ft | 219 kts | 308° |
| 2026-04-12 05:55 | -10.40197 | 127.89526 | 19869 ft | 219 kts | 308° |
| 2026-04-12 05:55 | -10.39255 | 127.88312 | 19869 ft | 219 kts | 308° |
| 2026-04-12 05:55 | -10.38311 | 127.87098 | 19867 ft | 219 kts | 308° |
| 2026-04-12 05:55 | -10.37366 | 127.85884 | 19869 ft | 219 kts | 308° |
| 2026-04-12 05:56 | -10.36422 | 127.84670 | 19869 ft | 219 kts | 308° |
| 2026-04-12 05:56 | -10.35479 | 127.83457 | 19869 ft | 219 kts | 308° |
| 2026-04-12 05:56 | -10.34534 | 127.82242 | 19868 ft | 219 kts | 308° |
| 2026-04-12 05:56 | -10.33589 | 127.81027 | 19869 ft | 219 kts | 308° |
| 2026-04-12 05:57 | -10.32644 | 127.79814 | 19869 ft | 219 kts | 308° |
| 2026-04-12 05:57 | -10.31700 | 127.78600 | 19870 ft | 219 kts | 308° |
| 2026-04-12 05:57 | -10.30755 | 127.77385 | 19870 ft | 219 kts | 308° |
| 2026-04-12 05:57 | -10.29810 | 127.76172 | 19870 ft | 219 kts | 308° |
| 2026-04-12 05:58 | -10.28866 | 127.74957 | 19877 ft | 219 kts | 308° |
| 2026-04-12 05:58 | -10.27920 | 127.73745 | 19870 ft | 219 kts | 308° |
| 2026-04-12 05:58 | -10.26976 | 127.72531 | 19870 ft | 219 kts | 308° |
| 2026-04-12 05:58 | -10.26032 | 127.71318 | 19870 ft | 219 kts | 308° |
| 2026-04-12 05:59 | -10.25087 | 127.70105 | 19872 ft | 219 kts | 308° |
| 2026-04-12 05:59 | -10.24145 | 127.68896 | 19870 ft | 219 kts | 308° |
| 2026-04-12 05:59 | -10.23201 | 127.67683 | 19870 ft | 219 kts | 308° |
| 2026-04-12 05:59 | -10.22255 | 127.66469 | 19870 ft | 219 kts | 308° |
| 2026-04-12 06:00 | -10.21310 | 127.65255 | 19870 ft | 219 kts | 308° |
| 2026-04-12 06:00 | -10.20366 | 127.64044 | 19875 ft | 219 kts | 308° |
| 2026-04-12 06:00 | -10.19420 | 127.62831 | 19880 ft | 219 kts | 308° |
| 2026-04-12 06:00 | -10.18475 | 127.61617 | 19870 ft | 219 kts | 308° |
| 2026-04-12 06:01 | -10.17529 | 127.60404 | 19870 ft | 219 kts | 308° |
| 2026-04-12 06:01 | -10.16583 | 127.59190 | 19870 ft | 219 kts | 308° |
| 2026-04-12 06:01 | -10.15635 | 127.57975 | 19872 ft | 219 kts | 308° |
| 2026-04-12 06:01 | -10.14701 | 127.56776 | 19870 ft | 219 kts | 308° |
| 2026-04-12 06:02 | -10.13754 | 127.55561 | 19870 ft | 219 kts | 308° |
| 2026-04-12 06:02 | -10.12807 | 127.54348 | 19871 ft | 220 kts | 308° |
| 2026-04-12 06:02 | -10.11859 | 127.53132 | 19875 ft | 219 kts | 308° |
| 2026-04-12 06:02 | -10.10912 | 127.51917 | 19871 ft | 219 kts | 308° |
| 2026-04-12 06:03 | -10.09967 | 127.50706 | 19871 ft | 219 kts | 308° |
| 2026-04-12 06:03 | -10.09025 | 127.49499 | 19871 ft | 219 kts | 308° |
| 2026-04-12 06:03 | -10.08079 | 127.48287 | 19871 ft | 219 kts | 308° |
| 2026-04-12 06:03 | -10.07133 | 127.47073 | 19871 ft | 219 kts | 308° |
| 2026-04-12 06:04 | -10.06187 | 127.45861 | 19870 ft | 219 kts | 308° |
| 2026-04-12 06:04 | -10.05240 | 127.44648 | 19876 ft | 219 kts | 308° |
| 2026-04-12 06:04 | -10.04295 | 127.43437 | 19871 ft | 219 kts | 308° |
| 2026-04-12 06:04 | -10.03348 | 127.42226 | 19876 ft | 219 kts | 308° |
| 2026-04-12 06:05 | -10.02403 | 127.41014 | 19871 ft | 219 kts | 308° |
| 2026-04-12 06:05 | -10.01457 | 127.39802 | 19874 ft | 219 kts | 308° |
| 2026-04-12 06:05 | -10.00510 | 127.38589 | 19871 ft | 219 kts | 308° |
| 2026-04-12 06:05 | -9.99565 | 127.37380 | 19879 ft | 219 kts | 308° |
| 2026-04-12 06:06 | -9.98619 | 127.36169 | 19871 ft | 219 kts | 308° |
| 2026-04-12 06:06 | -9.97672 | 127.34955 | 19875 ft | 219 kts | 308° |
| 2026-04-12 06:06 | -9.96725 | 127.33743 | 19871 ft | 219 kts | 308° |
| 2026-04-12 06:06 | -9.95779 | 127.32532 | 19871 ft | 219 kts | 308° |
| 2026-04-12 06:07 | -9.94833 | 127.31321 | 19872 ft | 219 kts | 308° |
| 2026-04-12 06:07 | -9.93886 | 127.30110 | 19871 ft | 219 kts | 308° |
| 2026-04-12 06:07 | -9.92942 | 127.28901 | 19871 ft | 219 kts | 308° |
| 2026-04-12 06:07 | -9.91997 | 127.27693 | 19871 ft | 218 kts | 308° |
| 2026-04-12 06:08 | -9.91053 | 127.26485 | 19871 ft | 218 kts | 308° |
| 2026-04-12 06:08 | -9.90123 | 127.25295 | 19876 ft | 218 kts | 308° |
| 2026-04-12 06:08 | -9.89180 | 127.24090 | 19876 ft | 218 kts | 308° |
| 2026-04-12 06:08 | -9.88238 | 127.22883 | 19871 ft | 218 kts | 308° |
| 2026-04-12 06:09 | -9.87294 | 127.21677 | 19871 ft | 218 kts | 308° |
| 2026-04-12 06:09 | -9.86353 | 127.20472 | 19871 ft | 218 kts | 308° |
| 2026-04-12 06:09 | -9.85412 | 127.19271 | 19870 ft | 218 kts | 308° |
| 2026-04-12 06:09 | -9.84471 | 127.18068 | 19870 ft | 218 kts | 308° |
| 2026-04-12 06:10 | -9.83530 | 127.16865 | 19870 ft | 218 kts | 308° |
| 2026-04-12 06:10 | -9.82588 | 127.15660 | 19871 ft | 218 kts | 308° |
| 2026-04-12 06:10 | -9.81644 | 127.14456 | 19877 ft | 218 kts | 308° |
| 2026-04-12 06:10 | -9.80700 | 127.13249 | 19872 ft | 218 kts | 308° |
| 2026-04-12 06:11 | -9.79756 | 127.12042 | 19874 ft | 218 kts | 308° |
| 2026-04-12 06:11 | -9.78812 | 127.10836 | 19872 ft | 218 kts | 308° |
| 2026-04-12 06:11 | -9.77869 | 127.09632 | 19877 ft | 218 kts | 308° |
| 2026-04-12 06:11 | -9.76926 | 127.08426 | 19872 ft | 218 kts | 308° |
| 2026-04-12 06:12 | -9.75983 | 127.07223 | 19871 ft | 218 kts | 308° |
| 2026-04-12 06:12 | -9.75041 | 127.06020 | 19871 ft | 218 kts | 308° |
| 2026-04-12 06:12 | -9.74096 | 127.04813 | 19872 ft | 218 kts | 308° |
| 2026-04-12 06:12 | -9.73154 | 127.03610 | 19872 ft | 218 kts | 308° |
| 2026-04-12 06:13 | -9.72211 | 127.02406 | 19872 ft | 218 kts | 308° |
| 2026-04-12 06:13 | -9.71267 | 127.01201 | 19872 ft | 218 kts | 308° |
| 2026-04-12 06:13 | -9.70324 | 126.99997 | 19876 ft | 218 kts | 308° |
| 2026-04-12 06:13 | -9.69380 | 126.98792 | 19872 ft | 218 kts | 308° |
| 2026-04-12 06:14 | -9.68437 | 126.97589 | 19871 ft | 218 kts | 308° |
| 2026-04-12 06:14 | -9.67493 | 126.96384 | 19872 ft | 218 kts | 308° |
| 2026-04-12 06:14 | -9.66561 | 126.95195 | 19871 ft | 218 kts | 308° |
| 2026-04-12 06:14 | -9.65616 | 126.93990 | 19871 ft | 219 kts | 308° |
| 2026-04-12 06:15 | -9.64670 | 126.92783 | 19871 ft | 219 kts | 308° |
| 2026-04-12 06:15 | -9.63727 | 126.91582 | 19876 ft | 219 kts | 308° |
| 2026-04-12 06:15 | -9.62781 | 126.90373 | 19871 ft | 219 kts | 308° |
| 2026-04-12 06:15 | -9.61833 | 126.89165 | 19871 ft | 219 kts | 308° |
| 2026-04-12 06:16 | -9.60885 | 126.87956 | 19871 ft | 219 kts | 308° |
| 2026-04-12 06:16 | -9.59938 | 126.86748 | 19876 ft | 219 kts | 308° |
| 2026-04-12 06:16 | -9.58990 | 126.85539 | 19872 ft | 219 kts | 308° |
| 2026-04-12 06:16 | -9.58041 | 126.84331 | 19878 ft | 219 kts | 308° |
| 2026-04-12 06:17 | -9.57094 | 126.83123 | 19872 ft | 219 kts | 308° |
| 2026-04-12 06:17 | -9.56146 | 126.81914 | 19877 ft | 219 kts | 308° |
| 2026-04-12 06:17 | -9.55196 | 126.80704 | 19872 ft | 219 kts | 308° |
| 2026-04-12 06:17 | -9.54248 | 126.79495 | 19872 ft | 219 kts | 308° |
| 2026-04-12 06:18 | -9.53300 | 126.78287 | 19872 ft | 219 kts | 308° |
| 2026-04-12 06:18 | -9.52351 | 126.77079 | 19876 ft | 219 kts | 308° |
| 2026-04-12 06:18 | -9.51402 | 126.75869 | 19873 ft | 219 kts | 308° |
| 2026-04-12 06:18 | -9.50453 | 126.74662 | 19875 ft | 219 kts | 308° |
| 2026-04-12 06:19 | -9.49506 | 126.73456 | 19875 ft | 219 kts | 308° |
| 2026-04-12 06:19 | -9.48559 | 126.72249 | 19879 ft | 219 kts | 308° |
| 2026-04-12 06:19 | -9.47611 | 126.71042 | 19872 ft | 219 kts | 308° |
| 2026-04-12 06:19 | -9.46664 | 126.69836 | 19872 ft | 219 kts | 308° |
| 2026-04-12 06:20 | -9.45714 | 126.68628 | 19872 ft | 219 kts | 308° |
| 2026-04-12 06:20 | -9.44831 | 126.67376 | 19873 ft | 219 kts | 300° |
| 2026-04-12 06:20 | -9.44059 | 126.66050 | 19871 ft | 219 kts | 300° |
| 2026-04-12 06:20 | -9.43278 | 126.64728 | 19871 ft | 219 kts | 300° |
| 2026-04-12 06:21 | -9.42493 | 126.63410 | 19871 ft | 219 kts | 301° |
| 2026-04-12 06:21 | -9.41710 | 126.62093 | 19871 ft | 219 kts | 301° |
| 2026-04-12 06:21 | -9.40925 | 126.60773 | 19878 ft | 219 kts | 300° |
| 2026-04-12 06:21 | -9.40141 | 126.59453 | 19871 ft | 219 kts | 300° |
| 2026-04-12 06:22 | -9.39357 | 126.58132 | 19871 ft | 219 kts | 300° |
| 2026-04-12 06:22 | -9.38575 | 126.56816 | 19871 ft | 219 kts | 300° |
| 2026-04-12 06:22 | -9.37790 | 126.55495 | 19871 ft | 219 kts | 300° |
| 2026-04-12 06:22 | -9.37005 | 126.54173 | 19872 ft | 219 kts | 301° |
| 2026-04-12 06:23 | -9.36218 | 126.52851 | 19875 ft | 219 kts | 300° |
| 2026-04-12 06:23 | -9.35434 | 126.51532 | 19871 ft | 219 kts | 301° |
| 2026-04-12 06:23 | -9.34648 | 126.50211 | 19878 ft | 219 kts | 300° |
| 2026-04-12 06:23 | -9.33864 | 126.48892 | 19871 ft | 219 kts | 301° |
| 2026-04-12 06:24 | -9.33080 | 126.47573 | 19871 ft | 219 kts | 300° |
| 2026-04-12 06:24 | -9.32296 | 126.46255 | 19871 ft | 219 kts | 300° |
| 2026-04-12 06:24 | -9.31510 | 126.44936 | 19871 ft | 219 kts | 300° |
| 2026-04-12 06:24 | -9.30726 | 126.43616 | 19871 ft | 219 kts | 300° |
| 2026-04-12 06:25 | -9.29941 | 126.42295 | 19871 ft | 219 kts | 301° |
| 2026-04-12 06:25 | -9.29155 | 126.40975 | 19872 ft | 219 kts | 301° |
| 2026-04-12 06:25 | -9.28369 | 126.39656 | 19874 ft | 219 kts | 301° |
| 2026-04-12 06:25 | -9.27584 | 126.38337 | 19878 ft | 219 kts | 300° |
| 2026-04-12 06:26 | -9.26800 | 126.37018 | 19874 ft | 219 kts | 300° |
| 2026-04-12 06:26 | -9.26015 | 126.35698 | 19881 ft | 219 kts | 301° |
| 2026-04-12 06:26 | -9.25228 | 126.34376 | 19870 ft | 219 kts | 301° |
| 2026-04-12 06:26 | -9.24440 | 126.33054 | 19870 ft | 219 kts | 300° |
| 2026-04-12 06:27 | -9.23654 | 126.31734 | 19879 ft | 219 kts | 301° |
| 2026-04-12 06:27 | -9.22867 | 126.30412 | 19869 ft | 219 kts | 300° |
| 2026-04-12 06:27 | -9.22091 | 126.29110 | 19868 ft | 219 kts | 300° |
| 2026-04-12 06:27 | -9.21305 | 126.27790 | 19867 ft | 219 kts | 300° |
| 2026-04-12 06:28 | -9.20520 | 126.26471 | 19869 ft | 219 kts | 300° |
| 2026-04-12 06:28 | -9.19733 | 126.25151 | 19869 ft | 219 kts | 300° |
| 2026-04-12 06:28 | -9.18947 | 126.23832 | 19881 ft | 219 kts | 300° |
| 2026-04-12 06:28 | -9.18163 | 126.22517 | 19875 ft | 218 kts | 300° |
| 2026-04-12 06:29 | -9.17379 | 126.21201 | 19875 ft | 219 kts | 300° |
| 2026-04-12 06:29 | -9.16595 | 126.19885 | 19876 ft | 218 kts | 300° |
| 2026-04-12 06:29 | -9.15811 | 126.18570 | 19870 ft | 218 kts | 300° |
| 2026-04-12 06:29 | -9.15025 | 126.17252 | 19872 ft | 219 kts | 300° |
| 2026-04-12 06:30 | -9.14240 | 126.15935 | 19871 ft | 219 kts | 300° |
| 2026-04-12 06:30 | -9.13457 | 126.14621 | 19872 ft | 219 kts | 300° |
| 2026-04-12 06:30 | -9.12672 | 126.13304 | 19871 ft | 218 kts | 300° |
| 2026-04-12 06:30 | -9.11886 | 126.11987 | 19870 ft | 219 kts | 300° |
| 2026-04-12 06:31 | -9.11101 | 126.10672 | 19870 ft | 219 kts | 300° |
| 2026-04-12 06:31 | -9.10318 | 126.09357 | 19872 ft | 219 kts | 300° |
| 2026-04-12 06:31 | -9.09532 | 126.08041 | 19870 ft | 218 kts | 301° |
| 2026-04-12 06:31 | -9.08747 | 126.06725 | 19870 ft | 218 kts | 300° |
| 2026-04-12 06:32 | -9.07960 | 126.05407 | 19870 ft | 219 kts | 300° |
| 2026-04-12 06:32 | -9.07176 | 126.04091 | 19870 ft | 219 kts | 300° |
| 2026-04-12 06:32 | -9.06389 | 126.02772 | 19874 ft | 220 kts | 301° |
| 2026-04-12 06:32 | -9.05597 | 126.01449 | 19874 ft | 220 kts | 301° |
| 2026-04-12 06:33 | -9.04806 | 126.00123 | 19874 ft | 220 kts | 301° |
| 2026-04-12 06:33 | -9.04013 | 125.98793 | 19876 ft | 221 kts | 300° |
| 2026-04-12 06:33 | -9.03221 | 125.97466 | 19880 ft | 221 kts | 301° |
| 2026-04-12 06:33 | -9.02425 | 125.96133 | 19877 ft | 221 kts | 300° |
| 2026-04-12 06:34 | -9.01630 | 125.94804 | 19882 ft | 221 kts | 300° |
| 2026-04-12 06:34 | -9.00837 | 125.93475 | 19881 ft | 221 kts | 300° |
| 2026-04-12 06:34 | -9.00041 | 125.92143 | 19880 ft | 221 kts | 301° |
| 2026-04-12 06:34 | -8.99255 | 125.90834 | 19888 ft | 221 kts | 302° |
| 2026-04-12 06:35 | -8.97384 | 125.88379 | 19885 ft | 220 kts | 308° |
| 2026-04-12 06:35 | -8.96440 | 125.87157 | 19883 ft | 220 kts | 307° |
| 2026-04-12 06:35 | -8.95498 | 125.85937 | 19881 ft | 220 kts | 307° |
| 2026-04-12 06:36 | -8.94556 | 125.84719 | 19877 ft | 220 kts | 307° |
| 2026-04-12 06:36 | -8.93613 | 125.83497 | 19877 ft | 220 kts | 307° |
| 2026-04-12 06:36 | -8.92668 | 125.82273 | 19855 ft | 222 kts | 307° |
| 2026-04-12 06:36 | -8.91702 | 125.81025 | 19644 ft | 230 kts | 307° |
| 2026-04-12 06:37 | -8.90693 | 125.79721 | 19320 ft | 240 kts | 308° |
| 2026-04-12 06:37 | -8.89648 | 125.78368 | 18969 ft | 248 kts | 308° |
| 2026-04-12 06:37 | -8.88576 | 125.76984 | 18610 ft | 252 kts | 308° |
| 2026-04-12 06:37 | -8.87488 | 125.75577 | 18249 ft | 255 kts | 308° |
| 2026-04-12 06:38 | -8.86405 | 125.74176 | 17905 ft | 251 kts | 308° |
| 2026-04-12 06:38 | -8.85334 | 125.72793 | 17584 ft | 251 kts | 308° |
| 2026-04-12 06:38 | -8.84254 | 125.71397 | 17247 ft | 253 kts | 308° |
| 2026-04-12 06:38 | -8.83172 | 125.69996 | 16905 ft | 253 kts | 308° |
| 2026-04-12 06:39 | -8.82087 | 125.68595 | 16566 ft | 253 kts | 308° |
| 2026-04-12 06:39 | -8.81005 | 125.67197 | 16226 ft | 252 kts | 308° |
| 2026-04-12 06:39 | -8.79927 | 125.65805 | 15901 ft | 251 kts | 307° |
| 2026-04-12 06:39 | -8.78855 | 125.64419 | 15574 ft | 249 kts | 308° |
| 2026-04-12 06:40 | -8.78149 | 125.63508 | 15356 ft | 248 kts | 308° |
| 2026-04-12 06:40 | -8.77095 | 125.62139 | 15030 ft | 247 kts | 306° |
| 2026-04-12 06:40 | -8.76330 | 125.60606 | 14711 ft | 244 kts | 287° |
| 2026-04-12 06:40 | -8.76063 | 125.58927 | 14399 ft | 241 kts | 270° |
| 2026-04-12 06:41 | -8.76041 | 125.57238 | 14087 ft | 240 kts | 270° |
| 2026-04-12 06:41 | -8.76007 | 125.55559 | 13824 ft | 237 kts | 270° |
| 2026-04-12 06:41 | -8.75970 | 125.53906 | 13567 ft | 234 kts | 270° |
| 2026-04-12 06:41 | -8.75938 | 125.52262 | 13276 ft | 234 kts | 270° |
| 2026-04-12 06:42 | -8.75908 | 125.50619 | 12970 ft | 234 kts | 270° |
| 2026-04-12 06:42 | -8.75910 | 125.48998 | 12659 ft | 234 kts | 264° |
| 2026-04-12 06:42 | -8.76171 | 125.47359 | 12348 ft | 232 kts | 260° |
| 2026-04-12 06:42 | -8.76425 | 125.45749 | 12041 ft | 231 kts | 261° |
| 2026-04-12 06:43 | -8.76671 | 125.44149 | 11746 ft | 231 kts | 261° |
| 2026-04-12 06:43 | -8.76920 | 125.42547 | 11437 ft | 230 kts | 260° |
| 2026-04-12 06:43 | -8.77171 | 125.40955 | 11141 ft | 230 kts | 260° |
| 2026-04-12 06:43 | -8.77421 | 125.39352 | 10832 ft | 231 kts | 260° |
| 2026-04-12 06:44 | -8.77670 | 125.37749 | 10526 ft | 231 kts | 259° |
| 2026-04-12 06:44 | -8.77923 | 125.36137 | 10211 ft | 233 kts | 259° |
| 2026-04-12 06:44 | -8.78176 | 125.34523 | 9903 ft | 233 kts | 259° |
| 2026-04-12 06:44 | -8.78427 | 125.32908 | 9620 ft | 233 kts | 259° |
| 2026-04-12 06:45 | -8.78675 | 125.31278 | 9335 ft | 235 kts | 260° |
| 2026-04-12 06:45 | -8.78615 | 125.29641 | 9072 ft | 236 kts | 281° |
| 2026-04-12 06:45 | -8.78021 | 125.28093 | 8799 ft | 237 kts | 301° |
| 2026-04-12 06:45 | -8.76968 | 125.26825 | 8525 ft | 236 kts | 321° |
| 2026-04-12 06:46 | -8.75582 | 125.25971 | 8263 ft | 233 kts | 340° |
| 2026-04-12 06:46 | -8.74149 | 125.25374 | 8005 ft | 233 kts | 340° |
| 2026-04-12 06:46 | -8.72592 | 125.24714 | 7689 ft | 234 kts | 340° |
| 2026-04-12 06:46 | -8.71067 | 125.24183 | 7376 ft | 230 kts | 353° |
| 2026-04-12 06:47 | -8.69491 | 125.24161 | 7082 ft | 225 kts | 12° |
| 2026-04-12 06:47 | -8.67980 | 125.24501 | 6813 ft | 222 kts | 18° |
| 2026-04-12 06:47 | -8.66465 | 125.24860 | 6513 ft | 224 kts | 17° |
| 2026-04-12 06:47 | -8.64954 | 125.25214 | 6206 ft | 223 kts | 17° |
| 2026-04-12 06:48 | -8.63454 | 125.25562 | 5914 ft | 222 kts | 17° |
| 2026-04-12 06:48 | -8.61979 | 125.25911 | 5609 ft | 218 kts | 17° |
| 2026-04-12 06:48 | -8.60566 | 125.26363 | 5313 ft | 209 kts | 31° |
| 2026-04-12 06:48 | -8.59430 | 125.27218 | 5023 ft | 200 kts | 50° |
| 2026-04-12 06:49 | -8.58661 | 125.28327 | 4749 ft | 189 kts | 67° |
| 2026-04-12 06:49 | -8.58277 | 125.29565 | 4485 ft | 183 kts | 83° |
| 2026-04-12 06:49 | -8.58200 | 125.30828 | 4244 ft | 177 kts | 89° |
| 2026-04-12 06:49 | -8.58136 | 125.32061 | 4052 ft | 174 kts | 88° |
| 2026-04-12 06:50 | -8.58073 | 125.33279 | 3825 ft | 174 kts | 89° |
| 2026-04-12 06:50 | -8.58013 | 125.34501 | 3573 ft | 174 kts | 88° |
| 2026-04-12 06:50 | -8.57954 | 125.35655 | 3339 ft | 160 kts | 89° |
| 2026-04-12 06:50 | -8.57902 | 125.36770 | 3104 ft | 158 kts | 88° |
| 2026-04-12 06:51 | -8.57845 | 125.37820 | 2883 ft | 135 kts | 89° |
| 2026-04-12 06:51 | -8.57770 | 125.38760 | 2757 ft | 131 kts | 79° |
| 2026-04-12 06:51 | -8.57566 | 125.39606 | 2738 ft | 119 kts | 81° |
| 2026-04-12 06:51 | -8.57392 | 125.40422 | 2655 ft | 121 kts | 78° |
| 2026-04-12 06:52 | -8.57183 | 125.41268 | 2445 ft | 126 kts | 78° |
| 2026-04-12 06:52 | -8.57005 | 125.42119 | 2363 ft | 121 kts | 78° |
| 2026-04-12 06:52 | -8.56819 | 125.42940 | 2351 ft | 120 kts | 78° |
| 2026-04-12 06:52 | -8.56615 | 125.43751 | 2168 ft | 119 kts | 76° |
| 2026-04-12 06:53 | -8.56395 | 125.44517 | 1852 ft | 108 kts | 81° |
| 2026-04-12 06:53 | -8.56230 | 125.45248 | 1537 ft | 106 kts | 83° |
| 2026-04-12 06:53 | -8.56090 | 125.45990 | 1234 ft | 108 kts | 83° |
| 2026-04-12 06:53 | -8.55934 | 125.46754 | 1014 ft | 111 kts | 83° |
| 2026-04-12 06:54 | -8.55776 | 125.47505 | 864 ft | 109 kts | 81° |
| 2026-04-12 06:54 | -8.55612 | 125.48252 | 734 ft | 110 kts | 78° |
| 2026-04-12 06:54 | -8.55424 | 125.48997 | 626 ft | 109 kts | 79° |
| 2026-04-12 06:54 | -8.55261 | 125.49757 | 463 ft | 114 kts | 82° |
| 2026-04-12 06:55 | -8.55092 | 125.50527 | 292 ft | 110 kts | 79° |
| 2026-04-12 06:55 | -8.54926 | 125.51240 | 119 ft | 101 kts | 79° |
| 2026-04-12 06:55 | -8.54778 | 125.51888 | 33 ft | 83 kts | 77° |
| 2026-04-12 06:55 | -8.54706 | 125.52212 | 35 ft | 7 kts | 78° |
| 2026-04-12 06:56 | -8.54692 | 125.52272 | 35 ft | 11 kts | 76° |
| 2026-04-12 06:56 | -8.54686 | 125.52339 | 35 ft | 9 kts | 127° |
| 2026-04-12 06:56 | -8.54747 | 125.52360 | 36 ft | 3 kts | 160° |
| 2026-04-12 06:56 | -8.54777 | 125.52366 | 36 ft | 6 kts | 176° |
| 2026-04-12 06:57 | -8.54789 | 125.52406 | 36 ft | 8 kts | 79° |
| 2026-04-12 06:57 | -8.54778 | 125.52459 | 36 ft | 8 kts | 77° |
| 2026-04-12 06:57 | -8.54763 | 125.52516 | 36 ft | 0 kts | 80° |
| 2026-04-12 06:57 | -8.54762 | 125.52526 | 36 ft | 4 kts | 81° |
| 2026-04-12 06:58 | -8.54786 | 125.52546 | 36 ft | 5 kts | 169° |
| 2026-04-12 06:58 | -8.54807 | 125.52534 | 36 ft | 5 kts | 255° |
| 2026-04-12 06:58 | -8.54815 | 125.52508 | 36 ft | 2 kts | 255° |
| 2026-04-12 06:58 | -8.54817 | 125.52500 | 36 ft | 1 kts | 253° |